createdAt,value
2017-12-16T00:02:25.057Z,8.30
2017-12-16T00:04:52.709Z,8.20
2017-12-16T00:07:20.321Z,8.30
2017-12-16T00:09:47.949Z,8.30
2017-12-16T00:12:15.540Z,8.30
2017-12-16T00:14:43.152Z,8.30
2017-12-16T00:17:10.792Z,8.30
2017-12-16T00:19:39.144Z,8.20
2017-12-16T00:22:06.770Z,8.20
2017-12-16T00:24:34.366Z,8.20
2017-12-16T00:27:01.961Z,8.20
2017-12-16T00:29:29.578Z,8.20
2017-12-16T00:31:57.160Z,8.20
2017-12-16T00:34:25.568Z,8.20
2017-12-16T00:36:53.199Z,8.20
2017-12-16T00:39:21.572Z,8.20
2017-12-16T00:41:49.187Z,8.20
2017-12-16T00:44:16.780Z,8.20
2017-12-16T00:46:44.426Z,8.20
2017-12-16T00:49:12.821Z,8.20
2017-12-16T00:51:40.575Z,8.10
2017-12-16T00:54:08.217Z,8.20
2017-12-16T00:56:35.814Z,8.20
2017-12-16T00:59:03.461Z,8.20
2017-12-16T01:01:31.053Z,8.20
2017-12-16T01:03:58.680Z,8.20
2017-12-16T01:06:26.323Z,8.20
2017-12-16T01:08:53.920Z,8.20
2017-12-16T01:11:21.597Z,8.20
2017-12-16T01:13:49.955Z,8.20
2017-12-16T01:16:17.548Z,8.10
2017-12-16T01:18:45.948Z,8.20
2017-12-16T01:21:13.556Z,8.10
2017-12-16T01:23:41.198Z,8.20
2017-12-16T01:26:08.793Z,8.20
2017-12-16T01:28:37.189Z,8.20
2017-12-16T01:31:05.545Z,8.20
2017-12-16T01:33:45.144Z,8.10
2017-12-16T01:39:17.118Z,8.20
2017-12-16T01:41:44.729Z,8.10
2017-12-16T01:44:13.097Z,8.20
2017-12-16T01:46:40.745Z,8.10
2017-12-16T01:49:08.385Z,8.10
2017-12-16T01:51:35.979Z,8.10
2017-12-16T01:54:03.604Z,8.10
2017-12-16T01:56:31.233Z,8.20
2017-12-16T01:58:59.625Z,8.20
2017-12-16T02:01:27.280Z,8.10
2017-12-16T02:03:54.978Z,8.10
2017-12-16T02:06:22.621Z,8.20
2017-12-16T02:08:50.225Z,8.10
2017-12-16T02:11:17.832Z,8.10
2017-12-16T02:13:45.493Z,8.10
2017-12-16T02:16:13.109Z,8.10
2017-12-16T02:18:40.749Z,8.10
2017-12-16T02:21:08.360Z,8.10
2017-12-16T02:23:36.745Z,8.10
2017-12-16T02:26:05.145Z,8.10
2017-12-16T02:28:32.763Z,8.00
2017-12-16T02:31:00.421Z,8.10
2017-12-16T02:33:28.057Z,8.10
2017-12-16T02:35:55.809Z,8.00
2017-12-16T02:38:23.440Z,8.00
2017-12-16T02:40:51.045Z,8.00
2017-12-16T02:43:18.692Z,8.00
2017-12-16T02:45:46.308Z,8.10
2017-12-16T02:48:14.688Z,8.00
2017-12-16T02:50:43.096Z,8.10
2017-12-16T02:53:10.704Z,8.00
2017-12-16T02:55:38.341Z,8.10
2017-12-16T02:58:05.952Z,8.00
2017-12-16T03:00:34.336Z,8.00
2017-12-16T03:03:02.753Z,8.00
2017-12-16T03:05:30.384Z,8.00
2017-12-16T03:07:58.020Z,8.00
2017-12-16T03:10:26.388Z,8.00
2017-12-16T03:12:54.049Z,8.00
2017-12-16T03:15:21.654Z,8.00
2017-12-16T03:17:49.265Z,8.00
2017-12-16T03:20:16.913Z,8.00
2017-12-16T03:22:44.540Z,8.00
2017-12-16T03:25:12.169Z,8.00
2017-12-16T03:27:40.561Z,8.00
2017-12-16T03:30:08.942Z,7.90
2017-12-16T03:32:36.610Z,7.90
2017-12-16T03:35:04.249Z,7.90
2017-12-16T03:37:32.709Z,7.90
2017-12-16T03:40:00.317Z,7.90
2017-12-16T03:42:27.929Z,7.90
2017-12-16T03:44:55.579Z,7.90
2017-12-16T03:47:23.239Z,7.90
2017-12-16T03:49:50.978Z,7.90
2017-12-16T03:52:18.881Z,7.90
2017-12-16T03:54:46.506Z,7.80
2017-12-16T03:57:14.129Z,7.80
2017-12-16T03:59:42.497Z,7.80
2017-12-16T04:02:10.145Z,7.80
2017-12-16T04:04:37.789Z,7.80
2017-12-16T04:07:05.438Z,7.80
2017-12-16T04:09:33.040Z,7.80
2017-12-16T04:12:00.634Z,7.80
2017-12-16T04:14:28.273Z,7.80
2017-12-16T04:16:56.661Z,7.80
2017-12-16T04:19:25.101Z,7.80
2017-12-16T04:21:52.733Z,7.70
2017-12-16T04:24:20.391Z,7.80
2017-12-16T04:26:48.025Z,7.80
2017-12-16T04:29:16.445Z,7.80
2017-12-16T04:31:44.105Z,7.70
2017-12-16T04:34:11.738Z,7.80
2017-12-16T04:36:39.365Z,7.80
2017-12-16T04:39:07.104Z,7.70
2017-12-16T04:41:34.714Z,7.80
2017-12-16T04:44:03.139Z,7.70
2017-12-16T04:46:30.772Z,7.70
2017-12-16T04:48:58.418Z,7.70
2017-12-16T04:51:26.790Z,7.70
2017-12-16T04:53:55.196Z,7.70
2017-12-16T04:56:22.826Z,7.70
2017-12-16T04:58:51.205Z,7.70
2017-12-16T05:01:19.624Z,7.70
2017-12-16T05:03:47.232Z,7.70
2017-12-16T05:06:14.858Z,7.70
2017-12-16T05:08:42.494Z,7.70
2017-12-16T05:11:10.115Z,7.70
2017-12-16T05:13:37.742Z,7.70
2017-12-16T05:16:05.409Z,7.80
2017-12-16T05:18:33.449Z,7.70
2017-12-16T05:21:01.084Z,7.70
2017-12-16T05:23:29.457Z,7.70
2017-12-16T05:25:57.892Z,7.70
2017-12-16T05:28:25.497Z,7.70
2017-12-16T05:30:53.913Z,7.70
2017-12-16T05:33:21.521Z,7.70
2017-12-16T05:35:50.660Z,7.70
2017-12-16T05:38:18.285Z,7.70
2017-12-16T05:40:47.432Z,7.70
2017-12-16T05:43:15.079Z,7.70
2017-12-16T05:45:43.472Z,7.70
2017-12-16T05:48:11.143Z,7.70
2017-12-16T05:50:38.770Z,7.70
2017-12-16T05:53:07.189Z,7.70
2017-12-16T05:55:34.777Z,7.60
2017-12-16T05:58:03.896Z,7.70
2017-12-16T06:00:32.315Z,7.70
2017-12-16T06:02:59.921Z,7.60
2017-12-16T06:05:27.576Z,7.70
2017-12-16T06:07:55.168Z,7.70
2017-12-16T06:10:23.540Z,7.70
2017-12-16T06:12:51.937Z,7.70
2017-12-16T06:15:19.626Z,7.70
2017-12-16T06:17:47.288Z,7.70
2017-12-16T06:20:14.892Z,7.70
2017-12-16T06:22:42.533Z,7.70
2017-12-16T06:25:10.166Z,7.70
2017-12-16T06:27:37.772Z,7.70
2017-12-16T06:30:05.405Z,7.70
2017-12-16T06:32:33.001Z,7.70
2017-12-16T06:35:01.422Z,7.80
2017-12-16T06:37:29.048Z,7.70
2017-12-16T06:39:57.426Z,7.70
2017-12-16T06:42:25.837Z,7.70
2017-12-16T06:44:53.437Z,7.70
2017-12-16T06:47:22.595Z,7.70
2017-12-16T06:49:50.193Z,7.70
2017-12-16T06:52:17.800Z,7.70
2017-12-16T06:54:45.424Z,7.70
2017-12-16T06:57:14.560Z,7.70
2017-12-16T06:59:42.218Z,7.70
2017-12-16T07:02:09.839Z,7.70
2017-12-16T07:04:37.445Z,7.70
2017-12-16T07:07:05.073Z,7.70
2017-12-16T07:09:32.797Z,7.70
2017-12-16T07:12:00.444Z,7.70
2017-12-16T07:14:28.067Z,7.70
2017-12-16T07:16:55.800Z,7.70
2017-12-16T07:19:23.447Z,7.70
2017-12-16T07:21:51.064Z,7.60
2017-12-16T07:24:19.461Z,7.60
2017-12-16T07:26:47.065Z,7.60
2017-12-16T07:29:14.695Z,7.60
2017-12-16T07:31:42.288Z,7.60
2017-12-16T07:34:09.966Z,7.60
2017-12-16T07:36:38.369Z,7.60
2017-12-16T07:39:06.728Z,7.50
2017-12-16T07:41:34.343Z,7.50
2017-12-16T07:44:01.934Z,7.50
2017-12-16T07:46:31.088Z,7.40
2017-12-16T07:48:58.677Z,7.40
2017-12-16T07:51:26.260Z,7.40
2017-12-16T07:53:53.884Z,7.50
2017-12-16T07:56:21.493Z,7.50
2017-12-16T07:58:49.900Z,7.50
2017-12-16T08:01:17.505Z,7.40
2017-12-16T08:03:45.131Z,7.50
2017-12-16T08:06:13.524Z,7.50
2017-12-16T08:08:41.134Z,7.40
2017-12-16T08:11:09.545Z,7.50
2017-12-16T08:13:37.165Z,7.50
2017-12-16T08:16:04.803Z,7.50
2017-12-16T08:18:32.420Z,7.50
2017-12-16T08:21:00.064Z,7.60
2017-12-16T08:23:28.491Z,7.60
2017-12-16T08:25:56.180Z,7.60
2017-12-16T08:28:23.797Z,7.60
2017-12-16T08:30:51.417Z,7.60
2017-12-16T08:33:19.011Z,7.70
2017-12-16T08:35:46.642Z,7.70
2017-12-16T08:38:15.032Z,7.70
2017-12-16T08:40:43.428Z,7.70
2017-12-16T08:43:11.054Z,7.70
2017-12-16T08:45:38.654Z,7.80
2017-12-16T08:48:06.308Z,7.80
2017-12-16T08:50:33.901Z,7.80
2017-12-16T08:53:01.660Z,7.80
2017-12-16T08:55:29.253Z,7.80
2017-12-16T08:57:56.847Z,7.80
2017-12-16T09:00:24.490Z,7.80
2017-12-16T09:02:52.888Z,7.80
2017-12-16T09:05:20.525Z,7.80
2017-12-16T09:07:48.133Z,7.80
2017-12-16T09:10:15.727Z,7.80
2017-12-16T09:12:43.690Z,7.80
2017-12-16T09:15:12.804Z,7.80
2017-12-16T09:17:40.432Z,7.80
2017-12-16T09:20:08.037Z,7.80
2017-12-16T09:22:36.469Z,7.90
2017-12-16T09:25:04.105Z,7.80
2017-12-16T09:27:31.715Z,7.90
2017-12-16T09:29:59.337Z,7.90
2017-12-16T09:32:26.953Z,7.90
2017-12-16T09:34:54.541Z,7.90
2017-12-16T09:37:22.168Z,7.90
2017-12-16T09:39:49.761Z,7.90
2017-12-16T09:42:17.427Z,7.90
2017-12-16T09:44:45.329Z,8.00
2017-12-16T09:47:12.935Z,8.00
2017-12-16T09:49:41.317Z,8.00
2017-12-16T09:52:09.677Z,8.00
2017-12-16T09:54:37.385Z,7.90
2017-12-16T09:57:04.981Z,8.00
2017-12-16T09:59:32.579Z,8.00
2017-12-16T10:02:00.980Z,8.10
2017-12-16T10:04:28.600Z,8.10
2017-12-16T10:06:56.233Z,8.10
2017-12-16T10:09:23.883Z,8.20
2017-12-16T10:11:51.530Z,8.20
2017-12-16T10:14:19.128Z,8.20
2017-12-16T10:16:46.733Z,8.20
2017-12-16T10:19:14.349Z,8.20
2017-12-16T10:21:41.953Z,8.20
2017-12-16T10:24:10.355Z,8.20
2017-12-16T10:26:37.952Z,8.20
2017-12-16T10:29:06.385Z,8.20
2017-12-16T10:31:34.152Z,8.20
2017-12-16T10:34:01.741Z,8.20
2017-12-16T10:36:29.369Z,8.20
2017-12-16T10:38:57.081Z,8.30
2017-12-16T10:41:24.717Z,8.30
2017-12-16T10:43:52.316Z,8.30
2017-12-16T10:46:19.920Z,8.30
2017-12-16T10:48:47.556Z,8.30
2017-12-16T10:51:15.956Z,8.40
2017-12-16T10:53:43.578Z,8.30
2017-12-16T10:56:11.176Z,8.40
2017-12-16T10:58:38.885Z,8.40
2017-12-16T11:01:09.176Z,8.40
2017-12-16T11:03:36.786Z,8.30
2017-12-16T11:06:05.310Z,8.40
2017-12-16T11:08:32.891Z,8.30
2017-12-16T11:11:00.654Z,8.30
2017-12-16T11:13:28.255Z,8.40
2017-12-16T11:15:55.917Z,8.40
2017-12-16T11:18:23.513Z,8.40
2017-12-16T11:20:51.124Z,8.40
2017-12-16T11:23:18.757Z,8.40
2017-12-16T11:25:46.344Z,8.40
2017-12-16T11:28:14.772Z,8.40
2017-12-16T11:30:42.364Z,8.30
2017-12-16T11:33:09.961Z,8.40
2017-12-16T11:35:37.584Z,8.40
2017-12-16T11:38:05.169Z,8.50
2017-12-16T11:40:32.793Z,8.50
2017-12-16T11:43:00.392Z,8.50
2017-12-16T11:45:28.023Z,8.60
2017-12-16T11:47:55.827Z,8.60
2017-12-16T11:50:24.266Z,8.50
2017-12-16T11:52:52.052Z,8.50
2017-12-16T11:55:19.650Z,8.60
2017-12-16T11:57:48.033Z,8.60
2017-12-16T12:00:16.400Z,8.50
2017-12-16T12:02:44.817Z,8.50
2017-12-16T12:05:12.498Z,8.50
2017-12-16T12:07:40.091Z,8.50
2017-12-16T12:10:07.720Z,8.50
2017-12-16T12:12:35.383Z,8.50
2017-12-16T12:15:03.009Z,8.60
2017-12-16T12:17:30.611Z,8.50
2017-12-16T12:19:58.250Z,8.50
2017-12-16T12:22:25.844Z,8.50
2017-12-16T12:24:53.468Z,8.60
2017-12-16T12:27:21.088Z,8.60
2017-12-16T12:29:49.467Z,8.70
2017-12-16T12:32:17.883Z,8.70
2017-12-16T12:34:45.477Z,8.70
2017-12-16T12:37:13.120Z,8.70
2017-12-16T12:39:40.713Z,8.70
2017-12-16T12:42:08.327Z,8.70
2017-12-16T12:44:35.957Z,8.80
2017-12-16T12:47:04.322Z,8.80
2017-12-16T12:49:32.718Z,8.80
2017-12-16T12:52:01.092Z,8.90
2017-12-16T12:54:29.527Z,8.90
2017-12-16T12:56:57.149Z,8.90
2017-12-16T12:59:24.740Z,8.90
2017-12-16T13:01:52.378Z,8.90
2017-12-16T13:04:19.984Z,8.90
2017-12-16T13:06:47.620Z,8.90
2017-12-16T13:09:15.240Z,8.80
2017-12-16T13:11:43.601Z,8.90
2017-12-16T13:14:11.225Z,8.80
2017-12-16T13:16:38.883Z,8.90
2017-12-16T13:19:06.500Z,8.90
2017-12-16T13:21:34.946Z,8.90
2017-12-16T13:24:02.510Z,8.80
2017-12-16T13:26:30.143Z,8.90
2017-12-16T13:28:57.737Z,8.90
2017-12-16T13:31:25.357Z,8.90
2017-12-16T13:33:52.948Z,8.90
2017-12-16T13:36:20.551Z,8.90
2017-12-16T13:38:48.171Z,8.90
2017-12-16T13:41:15.808Z,8.90
2017-12-16T13:43:43.426Z,8.90
2017-12-16T13:46:11.797Z,8.90
2017-12-16T13:48:40.174Z,8.90
2017-12-16T13:51:08.573Z,8.90
2017-12-16T13:53:36.176Z,8.90
2017-12-16T13:56:03.809Z,8.90
2017-12-16T13:58:31.422Z,8.90
2017-12-16T14:00:59.013Z,8.90
2017-12-16T14:03:26.712Z,8.90
2017-12-16T14:05:54.906Z,8.90
2017-12-16T14:08:22.528Z,8.90
2017-12-16T14:10:50.110Z,8.90
2017-12-16T14:13:17.732Z,8.90
2017-12-16T14:15:45.324Z,8.80
2017-12-16T14:18:12.919Z,8.80
2017-12-16T14:20:40.553Z,8.80
2017-12-16T14:23:08.150Z,8.80
2017-12-16T14:25:35.788Z,8.80
2017-12-16T14:28:03.401Z,8.80
2017-12-16T14:30:31.038Z,8.80
2017-12-16T14:32:59.453Z,8.80
2017-12-16T14:35:27.057Z,8.80
2017-12-16T14:37:54.805Z,8.80
2017-12-16T14:40:22.409Z,8.80
2017-12-16T14:42:50.817Z,8.80
2017-12-16T14:45:18.424Z,8.80
2017-12-16T14:47:46.053Z,8.80
2017-12-16T14:50:13.645Z,8.80
2017-12-16T14:52:42.013Z,8.80
2017-12-16T14:55:09.640Z,8.70
2017-12-16T14:57:37.300Z,8.80
2017-12-16T15:00:04.928Z,8.70
2017-12-16T15:02:33.297Z,8.70
2017-12-16T15:05:00.897Z,8.70
2017-12-16T15:07:28.518Z,8.70
2017-12-16T15:09:56.116Z,8.70
2017-12-16T15:12:23.746Z,8.70
2017-12-16T15:14:51.360Z,8.60
2017-12-16T15:17:18.952Z,8.60
2017-12-16T15:19:46.572Z,8.60
2017-12-16T15:22:14.166Z,8.50
2017-12-16T15:24:41.869Z,8.50
2017-12-16T15:27:09.464Z,8.50
2017-12-16T15:29:37.056Z,8.40
2017-12-16T15:32:04.691Z,8.50
2017-12-16T15:34:32.278Z,8.40
2017-12-16T15:36:59.917Z,8.40
2017-12-16T15:39:27.569Z,8.40
2017-12-16T15:41:55.205Z,8.40
2017-12-16T15:44:22.825Z,8.40
2017-12-16T15:46:50.438Z,8.30
2017-12-16T15:49:18.060Z,8.30
2017-12-16T15:51:46.429Z,8.30
2017-12-16T15:54:14.050Z,8.30
2017-12-16T15:56:41.640Z,8.30
2017-12-16T15:59:09.241Z,8.20
2017-12-16T16:01:36.877Z,8.20
2017-12-16T16:04:06.031Z,8.20
2017-12-16T16:06:33.681Z,8.20
2017-12-16T16:09:01.293Z,8.20
2017-12-16T16:11:28.928Z,8.20
2017-12-16T16:13:56.533Z,8.10
2017-12-16T16:16:24.888Z,8.10
2017-12-16T16:18:54.078Z,8.00
2017-12-16T16:21:21.681Z,8.00
2017-12-16T16:23:49.345Z,8.00
2017-12-16T16:26:16.972Z,8.00
2017-12-16T16:28:44.565Z,8.00
2017-12-16T16:31:12.944Z,8.00
2017-12-16T16:33:40.535Z,7.90
2017-12-16T16:36:08.156Z,7.90
2017-12-16T16:38:36.529Z,7.80
2017-12-16T16:41:04.938Z,7.80
2017-12-16T16:43:32.541Z,7.80
2017-12-16T16:46:00.130Z,7.80
2017-12-16T16:48:28.530Z,7.80
2017-12-16T16:50:56.171Z,7.70
2017-12-16T16:53:24.565Z,7.70
2017-12-16T16:55:52.275Z,7.70
2017-12-16T16:58:21.735Z,7.70
2017-12-16T17:00:50.564Z,7.80
2017-12-16T17:03:18.436Z,7.70
2017-12-16T17:05:46.409Z,7.70
2017-12-16T17:08:14.268Z,7.70
2017-12-16T17:10:42.243Z,7.70
2017-12-16T17:13:10.107Z,7.70
2017-12-16T17:15:38.079Z,7.60
2017-12-16T17:18:06.047Z,7.60
2017-12-16T17:20:33.913Z,7.70
2017-12-16T17:23:01.881Z,7.60
2017-12-16T17:25:29.744Z,7.60
2017-12-16T17:27:57.712Z,7.60
2017-12-16T17:30:25.578Z,7.60
2017-12-16T17:32:53.457Z,7.60
2017-12-16T17:35:21.624Z,7.60
2017-12-16T17:37:49.592Z,7.60
2017-12-16T17:40:17.564Z,7.60
2017-12-16T17:42:45.443Z,7.60
2017-12-16T17:45:13.307Z,7.60
2017-12-16T17:47:41.163Z,7.50
2017-12-16T17:50:09.347Z,7.60
2017-12-16T17:52:38.076Z,7.50
2017-12-16T17:55:05.994Z,7.50
2017-12-16T17:57:34.012Z,7.50
2017-12-16T18:00:01.927Z,7.50
2017-12-16T18:02:29.796Z,7.50
2017-12-16T18:04:57.866Z,7.50
2017-12-16T18:07:25.746Z,7.40
2017-12-16T18:09:53.710Z,7.40
2017-12-16T18:12:21.673Z,7.40
2017-12-16T18:14:49.641Z,7.40
2017-12-16T18:17:17.509Z,7.40
2017-12-16T18:22:19.387Z,7.40
2017-12-16T18:24:47.353Z,7.40
2017-12-16T18:27:15.222Z,7.40
2017-12-16T18:29:43.090Z,7.40
2017-12-16T18:32:10.904Z,7.40
2017-12-16T18:34:38.776Z,7.30
2017-12-16T18:37:06.684Z,7.30
2017-12-16T18:39:34.559Z,7.30
2017-12-16T18:42:02.419Z,7.20
2017-12-16T18:44:30.389Z,7.20
2017-12-16T18:46:58.208Z,7.20
2017-12-16T18:49:26.014Z,7.20
2017-12-16T18:51:53.624Z,7.10
2017-12-16T18:54:21.996Z,7.20
2017-12-16T18:56:50.390Z,7.20
2017-12-16T18:59:17.988Z,7.10
2017-12-16T19:01:45.624Z,7.10
2017-12-16T19:04:13.231Z,7.20
2017-12-16T19:06:41.587Z,7.10
2017-12-16T19:09:09.206Z,7.10
2017-12-16T19:11:37.565Z,7.10
2017-12-16T19:14:05.230Z,7.10
2017-12-16T19:16:33.664Z,7.10
2017-12-16T19:19:01.281Z,7.10
2017-12-16T19:21:29.983Z,7.10
2017-12-16T19:23:57.895Z,7.00
2017-12-16T19:26:25.969Z,7.10
2017-12-16T19:28:53.946Z,7.00
2017-12-16T19:31:21.902Z,7.10
2017-12-16T19:33:49.877Z,7.10
2017-12-16T19:36:17.740Z,7.00
2017-12-16T19:38:45.659Z,7.00
2017-12-16T19:41:13.575Z,6.90
2017-12-16T19:43:41.449Z,6.90
2017-12-16T19:46:09.420Z,6.90
2017-12-16T19:48:38.124Z,6.90
2017-12-16T19:51:06.885Z,6.90
2017-12-16T19:53:34.755Z,6.90
2017-12-16T19:56:02.617Z,6.90
2017-12-16T19:58:30.488Z,6.90
2017-12-16T20:00:58.352Z,6.90
2017-12-16T20:03:26.317Z,6.90
2017-12-16T20:05:54.188Z,6.90
2017-12-16T20:08:22.057Z,6.90
2017-12-16T20:10:49.930Z,7.00
2017-12-16T20:13:17.886Z,7.00
2017-12-16T20:15:45.780Z,6.90
2017-12-16T20:18:15.162Z,6.90
2017-12-16T20:20:43.037Z,6.90
2017-12-16T20:23:11.619Z,6.90
2017-12-16T20:25:39.247Z,6.90
2017-12-16T20:28:06.864Z,6.90
2017-12-16T20:30:35.221Z,6.90
2017-12-16T20:33:04.345Z,6.80
2017-12-16T20:35:32.705Z,6.90
2017-12-16T20:38:00.374Z,6.80
2017-12-16T20:40:29.752Z,6.90
2017-12-16T20:42:57.724Z,6.90
2017-12-16T20:45:25.688Z,6.90
2017-12-16T20:47:53.655Z,6.90
2017-12-16T20:50:21.583Z,6.90
2017-12-16T20:52:49.447Z,7.00
2017-12-16T20:55:17.359Z,7.00
2017-12-16T20:57:45.231Z,7.00
2017-12-16T21:00:17.295Z,7.00
2017-12-16T21:02:45.360Z,7.00
2017-12-16T21:05:13.186Z,7.00
2017-12-16T21:07:40.996Z,7.00
2017-12-16T21:10:08.813Z,7.00
2017-12-16T21:12:36.734Z,7.00
2017-12-16T21:15:04.554Z,7.00
2017-12-16T21:17:32.355Z,7.00
2017-12-16T21:20:00.225Z,7.00
2017-12-16T21:22:28.089Z,7.00
2017-12-16T21:24:55.957Z,6.90
2017-12-16T21:27:24.606Z,6.90
2017-12-16T21:29:53.234Z,6.90
2017-12-16T21:32:21.098Z,6.90
2017-12-16T21:34:48.960Z,6.80
2017-12-16T21:37:16.823Z,6.80
2017-12-16T21:39:44.701Z,6.80
2017-12-16T21:42:14.082Z,6.70
2017-12-16T21:44:41.709Z,6.80
2017-12-16T21:47:09.363Z,6.80
2017-12-16T21:49:38.109Z,6.80
2017-12-16T21:52:05.976Z,6.70
2017-12-16T21:54:33.905Z,6.80
2017-12-16T21:57:01.813Z,6.80
2017-12-16T21:59:29.782Z,6.70
2017-12-16T22:01:57.651Z,6.70
2017-12-16T22:04:27.054Z,6.60
2017-12-16T22:06:55.016Z,6.70
2017-12-16T22:09:22.885Z,6.70
2017-12-16T22:11:50.701Z,6.60
2017-12-16T22:14:18.613Z,6.60
2017-12-16T22:16:46.482Z,6.60
2017-12-16T22:19:14.457Z,6.60
2017-12-16T22:21:42.314Z,6.60
2017-12-16T22:24:10.189Z,6.60
2017-12-16T22:26:38.050Z,6.60
2017-12-16T22:29:05.661Z,6.60
2017-12-16T22:31:34.057Z,6.50
2017-12-16T22:34:01.649Z,6.50
2017-12-16T22:36:29.276Z,6.60
2017-12-16T22:38:56.860Z,6.50
2017-12-16T22:41:24.505Z,6.50
2017-12-16T22:43:52.188Z,6.50
2017-12-16T22:46:19.760Z,6.50
2017-12-16T22:48:47.404Z,6.50
2017-12-16T22:51:15.005Z,6.50
2017-12-16T22:53:42.589Z,6.50
2017-12-16T22:56:11.051Z,6.50
2017-12-16T22:58:38.629Z,6.50
2017-12-16T23:01:06.257Z,6.50
2017-12-16T23:03:34.628Z,6.50
2017-12-16T23:06:02.373Z,6.50
2017-12-16T23:08:30.037Z,6.50
2017-12-16T23:10:57.678Z,6.60
2017-12-16T23:13:25.329Z,6.60
2017-12-16T23:15:52.941Z,6.60
2017-12-16T23:18:20.562Z,6.60
2017-12-16T23:20:48.164Z,6.60
2017-12-16T23:23:15.827Z,6.60
2017-12-16T23:25:44.230Z,6.50
2017-12-16T23:28:12.633Z,6.50
2017-12-16T23:30:40.262Z,6.50
2017-12-16T23:33:08.655Z,6.50
2017-12-16T23:35:37.073Z,6.50
2017-12-16T23:38:04.682Z,6.50
2017-12-16T23:40:33.052Z,6.50
2017-12-16T23:43:00.677Z,6.50
2017-12-16T23:45:28.296Z,6.50
2017-12-16T23:47:56.704Z,6.40
2017-12-16T23:50:24.306Z,6.40
2017-12-16T23:55:25.901Z,6.40
2017-12-16T23:57:54.343Z,6.40
